KBYH/BYH METAR and TAF weather

Enter ICAO airport designator
Station Type Date Time Source
KBYH METAR 2020/07/10 17:59 UTC NOAA

KBYH 101759Z 35007KT 10SM SKC 33/20 A3000


Station Type Date Time Source
KBYH Decoded METAR 2020/07/10 17:59 UTC NOAA

Eaker Air Force Base, AR, United States (KBYH) 35-58N 089-57W
Jul 10, 2020 - 01:59 PM EDT / 2020.07.10 1759 UTC
Wind: from the N (350 degrees) at 8 MPH (7 KT):0
Visibility: 10 mile(s):0
Sky conditions: clear
Temperature: 91 F (33 C)
Heat index: 94.6 F (34.8 C):1
Dew Point: 68 F (20 C)
Relative Humidity: 46%
Pressure (altimeter): 30 in. Hg (1015 hPa)
ob: KBYH 101759Z 35007KT 10SM SKC 33/20 A3000
cycle: 18

Station Type Date Time Source
KBYH TAF UTC NOAA

Error!

Example: see airport list